Time;durP1;ratioP1;P1;durP2;ratioP2;P2;SDS_P1;SDS_P2;PMS_P1;PMS_P2;Temp;Humidity;BMP_temperature;BMP_pressure;BME280_temperature;BME280_humidity;BME280_pressure;Samples;Min_cycle;Max_cycle;Signal;HPM_P1;HPM_P2
2022/08/21 00:09:49;;;;;;;5.20;1.00;;;;;;;14.77;100.00;97918.63;18233231;32;20078;-62
2022/08/21 00:20:21;;;;;;;2.37;1.05;;;;;;;14.69;100.00;97917.34;18233096;32;20058;-62
2022/08/21 00:30:31;;;;;;;4.43;1.23;;;;;;;14.61;100.00;97909.78;18232299;32;20430;-62
2022/08/21 00:41:13;;;;;;;2.22;0.90;;;;;;;14.65;100.00;97913.56;18231873;32;20531;-62
2022/08/21 00:52:08;;;;;;;2.15;1.00;;;;;;;14.61;100.00;97907.06;18229724;32;20058;-62
2022/08/21 01:02:44;;;;;;;1.17;0.80;;;;;;;14.56;100.00;97903.28;18230262;32;20122;-62
2022/08/21 01:13:12;;;;;;;2.00;1.00;;;;;;;14.37;100.00;97900.53;18230404;32;20084;-61
2022/08/21 01:23:15;;;;;;;1.10;0.90;;;;;;;14.27;100.00;97892.50;18230520;32;20067;-62
2022/08/21 01:33:22;;;;;;;1.50;0.80;;;;;;;14.21;100.00;97885.47;18229788;32;20064;-62
2022/08/21 01:43:24;;;;;;;1.10;0.80;;;;;;;14.18;100.00;97881.44;18240103;32;20061;-61
2022/08/21 01:53:41;;;;;;;1.25;0.98;;;;;;;14.14;100.00;97877.69;18225895;32;20100;-62
2022/08/21 02:03:43;;;;;;;1.90;1.23;;;;;;;14.17;100.00;97866.22;18238471;32;20424;-62
2022/08/21 02:13:51;;;;;;;1.58;0.85;;;;;;;14.22;100.00;97868.88;18213046;32;20442;-63
2022/08/21 02:24:36;;;;;;;1.35;0.90;;;;;;;14.21;100.00;97861.81;18224282;32;20071;-62
2022/08/21 02:34:59;;;;;;;2.03;1.10;;;;;;;14.17;100.00;97865.38;18237796;32;20074;-62
2022/08/21 02:45:17;;;;;;;1.10;0.90;;;;;;;14.10;100.00;97852.16;18225058;32;20070;-63
2022/08/21 02:55:42;;;;;;;1.85;1.00;;;;;;;14.01;100.00;97849.25;18236390;32;20389;-62
2022/08/21 03:05:49;;;;;;;1.62;1.08;;;;;;;13.95;100.00;97852.28;18236315;32;20076;-62
2022/08/21 03:16:13;;;;;;;1.50;1.00;;;;;;;13.90;100.00;97848.53;18224369;32;20063;-62
2022/08/21 03:26:21;;;;;;;1.58;1.12;;;;;;;13.78;100.00;97850.81;18235410;32;20067;-62
2022/08/21 03:36:24;;;;;;;2.00;1.00;;;;;;;13.65;100.00;97840.62;18235728;32;20067;-62
2022/08/21 03:46:26;;;;;;;1.62;1.02;;;;;;;13.57;100.00;97844.78;18234292;32;20058;-62
2022/08/21 03:56:29;;;;;;;2.30;0.80;;;;;;;13.50;100.00;97849.75;18233835;32;20374;-62
2022/08/21 04:06:32;;;;;;;1.27;0.85;;;;;;;13.43;100.00;97841.91;18219911;32;20054;-62
2022/08/21 04:16:38;;;;;;;2.55;1.02;;;;;;;13.33;100.00;97850.94;18233531;32;20188;-64
2022/08/21 04:26:41;;;;;;;1.50;1.12;;;;;;;13.28;100.00;97852.84;18232928;32;20054;-64
2022/08/21 04:36:43;;;;;;;1.17;0.90;;;;;;;13.35;100.00;97858.78;18232126;32;20117;-64
2022/08/21 04:46:45;;;;;;;1.35;0.70;;;;;;;13.28;100.00;97869.13;18217579;32;20055;-64
2022/08/21 04:56:59;;;;;;;10.68;1.25;;;;;;;13.24;100.00;97863.47;18231121;32;20106;-64
2022/08/21 05:07:05;;;;;;;2.15;0.95;;;;;;;13.32;100.00;97856.63;18231149;32;20080;-64
2022/08/21 05:17:09;;;;;;;1.10;0.93;;;;;;;13.45;100.00;97869.59;18240247;32;20483;-63
2022/08/21 05:27:11;;;;;;;1.63;0.93;;;;;;;13.56;100.00;97870.31;18240768;32;20074;-64
2022/08/21 05:37:18;;;;;;;1.20;0.80;;;;;;;13.68;100.00;97868.03;18240198;32;20058;-64
2022/08/21 05:47:20;;;;;;;1.60;1.00;;;;;;;13.88;100.00;97882.53;18239780;32;20496;-64
2022/08/21 05:57:23;;;;;;;2.00;1.23;;;;;;;14.13;100.00;97886.09;18225496;32;20118;-64
2022/08/21 06:07:25;;;;;;;1.73;1.27;;;;;;;14.45;100.00;97879.25;18225140;32;20054;-64
2022/08/21 06:17:27;;;;;;;1.48;1.02;;;;;;;14.81;100.00;97887.78;18290065;32;20099;-64
2022/08/21 06:27:30;;;;;;;2.80;2.05;;;;;;;15.21;100.00;97884.78;18237431;32;20062;-65
2022/08/21 06:37:33;;;;;;;5.37;3.40;;;;;;;15.66;100.00;97892.56;18237959;32;20109;-62
2022/08/21 06:47:35;;;;;;;5.93;4.20;;;;;;;15.81;100.00;97884.13;18237087;32;20058;-62
2022/08/21 06:57:38;;;;;;;5.37;3.42;;;;;;;15.69;100.00;97890.03;18210430;32;20450;-62
2022/08/21 07:07:40;;;;;;;3.75;3.00;;;;;;;15.69;100.00;97900.13;18222516;32;20110;-62
2022/08/21 07:17:43;;;;;;;3.58;3.03;;;;;;;15.62;100.00;97905.16;18222112;32;20077;-62
2022/08/21 07:27:45;;;;;;;4.12;3.37;;;;;;;15.96;100.00;97895.91;18235174;32;20046;-62
2022/08/21 07:37:48;;;;;;;3.22;2.62;;;;;;;16.48;100.00;97898.50;18234758;32;20113;-62
2022/08/21 07:47:51;;;;;;;3.97;2.77;;;;;;;17.40;100.00;97895.72;18234563;32;20074;-62
2022/08/21 07:57:59;;;;;;;5.12;2.03;;;;;;;18.14;96.52;97896.41;18234000;32;20107;-62
2022/08/21 08:08:02;;;;;;;4.60;2.40;;;;;;;18.77;95.34;97897.13;18233736;32;20084;-62
2022/08/21 08:18:05;;;;;;;2.77;2.23;;;;;;;19.30;91.09;97896.09;18219452;32;20058;-63
2022/08/21 08:38:43;;;;;;;3.58;2.17;;;;;;;20.39;83.84;97870.56;18036310;32;20075;-63
2022/08/21 08:49:03;;;;;;;3.50;1.87;;;;;;;20.39;79.19;97876.06;18023690;32;20063;-63
2022/08/21 08:59:44;;;;;;;2.83;1.87;;;;;;;20.62;80.18;97866.44;18033597;32;20067;-63
2022/08/21 09:10:10;;;;;;;3.67;1.55;;;;;;;21.06;78.83;97859.87;18055111;32;20059;-63
2022/08/21 09:21:01;;;;;;;2.30;1.58;;;;;;;21.26;73.17;97861.03;18105356;32;20168;-62
2022/08/21 09:31:18;;;;;;;2.58;2.10;;;;;;;21.59;74.65;97858.34;18104909;32;20130;-62
2022/08/21 09:41:28;;;;;;;2.77;2.00;;;;;;;21.94;70.87;97840.66;18104415;32;20125;-63
2022/08/21 09:51:36;;;;;;;1.70;1.15;;;;;;;22.46;70.19;97830.97;18102979;32;20101;-62
2022/08/21 10:01:44;;;;;;;5.78;1.45;;;;;;;22.78;68.24;97825.69;18181520;32;20054;-62
2022/08/21 10:12:22;;;;;;;4.50;1.17;;;;;;;23.07;69.27;97818.28;18238484;32;20454;-62
2022/08/21 10:22:50;;;;;;;1.25;0.90;;;;;;;23.32;67.85;97811.56;18224047;32;20062;-62
2022/08/21 10:33:19;;;;;;;1.12;1.00;;;;;;;23.89;68.73;97789.41;18237547;32;20054;-62
2022/08/21 10:43:52;;;;;;;1.55;0.70;;;;;;;24.30;65.05;97786.47;18237532;32;20066;-62
2022/08/21 10:53:54;;;;;;;;;;;;;;;24.46;64.92;97778.16;18237863;32;20078;-62
2022/08/21 11:04:16;;;;;;;0.93;0.65;;;;;;;25.07;61.70;97779.50;18222581;32;19945;-62
2022/08/21 11:14:34;;;;;;;0.70;0.60;;;;;;;25.25;58.25;97768.78;18221484;32;20070;-63
2022/08/21 11:25:28;;;;;;;0.77;0.60;;;;;;;26.06;57.81;97760.81;18222615;32;20046;-62
2022/08/21 11:35:57;;;;;;;2.37;1.08;;;;;;;26.39;52.62;97757.34;18038825;32;20099;-62
2022/08/21 11:46:03;;;;;;;0.52;0.43;;;;;;;25.06;57.18;97755.75;18025794;32;20127;-61
2022/08/21 11:56:22;;;;;;;1.25;0.75;;;;;;;23.97;63.85;97738.72;18037880;32;20079;-62
2022/08/21 12:06:31;;;;;;;1.70;1.08;;;;;;;25.37;59.71;97737.44;18149557;32;20155;-62
2022/08/21 12:16:37;;;;;;;2.40;0.70;;;;;;;26.10;55.34;97718.12;18233493;32;20054;-62
2022/08/21 12:27:25;;;;;;;1.77;0.70;;;;;;;26.73;51.67;97717.84;18218553;32;20472;-62
2022/08/21 12:37:39;;;;;;;1.17;0.73;;;;;;;27.40;53.33;97719.84;18232328;32;20058;-62
2022/08/21 12:47:57;;;;;;;0.95;0.80;;;;;;;27.49;56.64;97713.97;18231868;32;20094;-63
2022/08/21 12:58:01;;;;;;;1.55;0.70;;;;;;;27.50;43.82;97710.00;18217774;32;20069;-62
2022/08/21 13:08:06;;;;;;;1.10;0.70;;;;;;;27.64;43.12;97707.37;18217356;32;20476;-62
2022/08/21 13:18:22;;;;;;;1.33;0.77;;;;;;;28.61;48.28;97700.94;18230742;32;20104;-62
2022/08/21 13:28:34;;;;;;;1.20;0.70;;;;;;;29.20;45.03;97701.59;18230284;32;20055;-62
2022/08/21 13:38:40;;;;;;;0.90;0.70;;;;;;;29.39;42.85;97694.88;18214260;32;20427;-62
2022/08/21 13:48:43;;;;;;;0.95;0.68;;;;;;;29.58;38.94;97690.13;18239754;32;20054;-61
2022/08/21 13:58:46;;;;;;;1.30;0.70;;;;;;;29.83;42.21;97692.13;18239063;32;20070;-62
2022/08/21 14:09:11;;;;;;;1.20;0.62;;;;;;;29.81;42.19;97683.37;18224897;32;20447;-62
2022/08/21 14:19:21;;;;;;;1.00;0.50;;;;;;;30.07;42.70;97671.03;18238325;32;20414;-62
2022/08/21 14:29:27;;;;;;;1.08;0.90;;;;;;;30.35;43.19;97664.59;18238117;32;20366;-62
2022/08/21 14:39:35;;;;;;;;;;;;;;;30.68;42.93;97658.94;18237635;32;20480;-62
2022/08/21 14:49:39;;;;;;;1.00;0.60;;;;;;;30.58;43.43;97653.00;18224110;32;19983;-62
2022/08/21 14:59:42;;;;;;;2.12;0.60;;;;;;;29.66;43.84;97641.56;18236346;32;20054;-62
2022/08/21 15:09:45;;;;;;;1.00;0.70;;;;;;;28.48;45.27;97625.38;18222136;32;20051;-62
2022/08/21 15:19:48;;;;;;;0.60;0.50;;;;;;;27.94;50.92;97605.59;18235927;32;20351;-62
2022/08/21 15:29:53;;;;;;;0.70;0.50;;;;;;;27.47;52.15;97608.81;18235465;32;20057;-62
2022/08/21 15:39:55;;;;;;;0.98;0.77;;;;;;;26.78;56.00;97606.53;18208640;32;20097;-62
2022/08/21 15:49:58;;;;;;;2.17;0.60;;;;;;;26.11;58.36;97591.47;18220828;32;20115;-62
2022/08/21 16:00:11;;;;;;;0.47;0.43;;;;;;;25.68;60.85;97575.81;18233217;32;20062;-62
2022/08/21 16:10:17;;;;;;;1.30;0.70;;;;;;;25.37;63.33;97569.37;18233629;32;20066;-62
2022/08/21 16:20:27;;;;;;;1.37;0.85;;;;;;;25.20;62.02;97562.37;18233504;32;20099;-62
2022/08/21 16:30:31;;;;;;;1.55;0.70;;;;;;;24.73;65.54;97559.97;18232251;32;20092;-62
2022/08/21 16:40:35;;;;;;;2.15;0.55;;;;;;;24.03;69.97;97563.28;18232217;32;20085;-62
2022/08/21 16:50:39;;;;;;;1.55;0.40;;;;;;;23.64;73.38;97563.19;18232095;32;20062;-62
2022/08/21 17:00:42;;;;;;;0.88;0.60;;;;;;;23.51;73.22;97561.72;18217774;32;20155;-62
2022/08/21 17:10:47;;;;;;;1.00;0.40;;;;;;;22.68;74.63;97562.37;18213126;32;20403;-62
2022/08/21 17:20:51;;;;;;;0.70;0.52;;;;;;;21.97;74.93;97546.22;18241046;32;20114;-62
2022/08/21 17:30:59;;;;;;;0.70;0.57;;;;;;;21.44;77.98;97554.41;18240885;32;20099;-62
2022/08/21 17:41:09;;;;;;;1.30;0.75;;;;;;;21.01;80.40;97554.94;18240326;32;20054;-62
2022/08/21 17:51:11;;;;;;;1.77;0.50;;;;;;;20.63;82.35;97551.31;18240127;32;20455;-62
2022/08/21 18:01:15;;;;;;;;;;;;;;;20.35;84.54;97556.59;18239489;32;20101;-61
2022/08/21 18:11:22;;;;;;;4.97;0.70;;;;;;;20.12;86.70;97554.22;18239182;32;19954;-62
2022/08/21 18:21:26;;;;;;;1.42;0.70;;;;;;;19.91;88.36;97557.78;18224404;32;20084;-62
2022/08/21 18:31:31;;;;;;;2.87;0.73;;;;;;;19.63;89.77;97565.66;18224617;32;20084;-62
2022/08/21 18:41:34;;;;;;;0.80;0.60;;;;;;;19.36;91.28;97572.44;18211341;32;20067;-63
2022/08/21 18:51:37;;;;;;;2.47;0.60;;;;;;;19.02;93.20;97571.44;18237424;32;20099;-62
2022/08/21 19:01:46;;;;;;;0.90;0.52;;;;;;;18.69;94.50;97582.94;18236893;32;20103;-62
2022/08/21 19:11:49;;;;;;;0.90;0.50;;;;;;;18.32;93.98;97585.25;18236227;32;20063;-62
2022/08/21 19:21:52;;;;;;;0.62;0.50;;;;;;;18.00;95.06;97582.66;18236156;32;20420;-62
2022/08/21 19:31:57;;;;;;;1.37;0.70;;;;;;;17.69;95.95;97597.25;18234760;32;20420;-62
2022/08/21 19:42:00;;;;;;;4.80;0.77;;;;;;;17.39;97.38;97609.84;18235392;32;20070;-62
2022/08/21 19:52:02;;;;;;;2.12;0.60;;;;;;;17.09;98.01;97595.94;18208560;32;20101;-62
2022/08/21 20:02:18;;;;;;;1.35;0.52;;;;;;;16.87;98.90;97605.75;18208763;32;20099;-62
2022/08/21 20:12:22;;;;;;;5.07;0.60;;;;;;;16.61;98.67;97597.41;18285151;32;20098;-62
2022/08/21 20:22:26;;;;;;;1.80;0.90;;;;;;;16.43;100.00;97597.28;18233330;32;20374;-62
2022/08/21 20:32:50;;;;;;;2.95;0.82;;;;;;;16.30;100.00;97591.87;18233170;32;20059;-63
2022/08/21 20:42:56;;;;;;;4.85;1.10;;;;;;;16.23;99.43;97595.84;18232030;32;20067;-62
2022/08/21 20:53:22;;;;;;;1.80;0.80;;;;;;;16.24;98.96;97589.28;18231772;32;20098;-62
2022/08/21 21:03:55;;;;;;;3.33;0.90;;;;;;;16.23;99.82;97593.09;18230916;32;20058;-62
2022/08/21 21:14:21;;;;;;;2.35;0.85;;;;;;;16.23;100.00;97604.03;18231317;32;20058;-63
2022/08/21 21:24:59;;;;;;;1.40;0.70;;;;;;;16.25;100.00;97596.34;18230521;32;20046;-62
2022/08/21 21:35:05;;;;;;;1.70;0.88;;;;;;;16.31;100.00;97591.56;18225428;32;20497;-63
2022/08/21 21:45:41;;;;;;;2.25;1.08;;;;;;;16.40;100.00;97602.53;18216472;32;20102;-62
2022/08/21 21:56:25;;;;;;;3.30;1.05;;;;;;;16.45;100.00;97605.16;18235362;32;20066;-63
2022/08/21 22:07:13;;;;;;;2.25;1.10;;;;;;;16.53;100.00;97614.53;18114453;32;20063;-63
2022/08/21 22:17:38;;;;;;;3.78;1.02;;;;;;;16.58;100.00;97620.66;18114123;32;20063;-61
2022/08/21 22:27:45;;;;;;;2.67;1.02;;;;;;;16.58;100.00;97619.84;18114047;32;20371;-63
2022/08/21 22:37:55;;;;;;;1.02;0.88;;;;;;;16.44;100.00;97614.44;18112998;32;20060;-63
2022/08/21 22:48:27;;;;;;;2.55;1.25;;;;;;;16.30;100.00;97608.25;18112368;32;20075;-62
2022/08/21 22:58:59;;;;;;;1.48;1.05;;;;;;;16.20;100.00;97621.00;18141910;32;20434;-62
2022/08/21 23:09:31;;;;;;;2.75;1.10;;;;;;;16.12;100.00;97613.56;18223094;32;20498;-63
2022/08/21 23:20:17;;;;;;;2.67;1.00;;;;;;;16.12;100.00;97613.56;17978596;32;20080;-62
2022/08/21 23:30:46;;;;;;;;;;;;;;;16.17;100.00;97609.91;17905707;32;20098;-62
2022/08/21 23:41:26;;;;;;;1.60;0.90;;;;;;;16.11;100.00;97602.97;17795887;33;19974;-63
2022/08/21 23:51:58;;;;;;;3.03;1.25;;;;;;;16.04;100.00;97608.84;17841550;33;20080;-63
